Time;durP1;ratioP1;P1;durP2;ratioP2;P2;SDS_P1;SDS_P2;PMS_P1;PMS_P2;Temp;Humidity;BMP_temperature;BMP_pressure;BME280_temperature;BME280_humidity;BME280_pressure;Samples;Min_cycle;Max_cycle;Signal;HPM_P1;HPM_P2
2023/07/06 00:02:18;;;;;;;7.08;3.98;;;;;;;18.61;100.00;100566.89;4909291;58;1143092;-73
2023/07/06 00:07:24;;;;;;;15.15;5.75;;;;;;;18.61;100.00;100566.89;4889881;58;1140972;-74
2023/07/06 00:12:29;;;;;;;16.90;4.75;;;;;;;18.64;100.00;100568.37;4890056;58;1143309;-77
2023/07/06 00:17:35;;;;;;;12.40;5.57;;;;;;;18.64;100.00;100570.23;4923222;57;1142999;-70
2023/07/06 00:22:41;;;;;;;6.67;3.90;;;;;;;18.58;100.00;100573.92;5051047;57;1143100;-75
2023/07/06 00:27:47;;;;;;;6.83;3.80;;;;;;;18.45;100.00;100564.70;5051619;57;1140999;-72
2023/07/06 00:32:52;;;;;;;6.33;3.37;;;;;;;18.28;100.00;100562.52;5051771;57;1141042;-70
2023/07/06 00:37:59;;;;;;;5.67;3.95;;;;;;;18.23;100.00;100572.39;5071353;57;1140697;-73
2023/07/06 00:43:06;;;;;;;7.15;3.80;;;;;;;18.28;100.00;100577.25;5050996;57;1140826;-75
2023/07/06 00:48:37;;;;;;;10.23;4.53;;;;;;;18.30;100.00;100581.94;5052386;57;1140731;-73
2023/07/06 00:53:48;;;;;;;6.00;3.95;;;;;;;18.31;100.00;100581.44;5015268;56;1143002;-74
2023/07/06 00:59:04;;;;;;;11.48;4.30;;;;;;;18.27;100.00;100585.78;4970097;56;1140985;-72
2023/07/06 01:04:08;;;;;;;7.43;3.17;;;;;;;18.03;100.00;100586.25;4969038;56;1143194;-70
2023/07/06 01:09:13;;;;;;;6.57;3.30;;;;;;;17.73;100.00;100585.86;4990921;56;1141277;-71
2023/07/06 01:14:19;;;;;;;9.10;3.77;;;;;;;17.43;100.00;100591.25;4988980;56;1140967;-70
2023/07/06 01:19:55;;;;;;;21.62;7.37;;;;;;;17.17;100.00;100595.33;5052483;56;1140974;-75
2023/07/06 01:25:12;;;;;;;10.25;4.80;;;;;;;17.07;100.00;100592.44;5031578;56;1143183;-77
2023/07/06 01:30:50;;;;;;;5.97;4.10;;;;;;;17.24;100.00;100604.89;5072031;57;1143156;-72
2023/07/06 01:36:00;;;;;;;5.67;3.60;;;;;;;17.35;100.00;100604.60;5053153;57;1140992;-74
2023/07/06 01:41:06;;;;;;;8.60;3.93;;;;;;;17.47;100.00;100601.13;5028749;57;1140997;-76
2023/07/06 01:46:12;;;;;;;8.63;4.17;;;;;;;17.46;100.00;100604.80;4831135;59;1141198;-69
2023/07/06 01:51:24;;;;;;;12.93;4.17;;;;;;;17.33;100.00;100613.28;5038164;57;1140915;-70
2023/07/06 01:56:49;;;;;;;11.33;4.53;;;;;;;17.11;100.00;100612.52;5025262;57;1143057;-73
2023/07/06 02:02:02;;;;;;;7.03;3.43;;;;;;;16.80;100.00;100610.30;5021834;57;1143164;-72
2023/07/06 02:07:07;;;;;;;;;;;;;;;16.63;100.00;100618.38;5044196;57;1140895;-73
2023/07/06 02:12:13;;;;;;;4.47;3.50;;;;;;;16.64;100.00;100618.72;5058912;57;978244;-72
2023/07/06 02:17:20;;;;;;;5.47;3.20;;;;;;;16.69;100.00;100622.58;5037143;57;1138878;-74
2023/07/06 02:22:27;;;;;;;3.97;3.23;;;;;;;16.74;100.00;100628.80;4976177;57;1140790;-72
2023/07/06 02:27:33;;;;;;;3.88;3.48;;;;;;;16.69;100.00;100631.92;4956933;57;1140736;-75
2023/07/06 02:32:39;;;;;;;3.70;2.83;;;;;;;16.72;100.00;100620.09;4954446;57;1140991;-72
2023/07/06 02:37:45;;;;;;;12.50;2.87;;;;;;;16.54;100.00;100634.28;4975665;57;1140928;-74
2023/07/06 02:42:50;;;;;;;3.57;2.83;;;;;;;16.31;100.00;100635.77;4955270;57;1143087;-75
2023/07/06 02:47:58;;;;;;;7.92;3.30;;;;;;;16.24;100.00;100636.02;4935248;57;1140888;-75
2023/07/06 02:53:03;;;;;;;3.07;2.80;;;;;;;16.14;100.00;100648.61;5041511;57;1140678;-73
2023/07/06 02:58:09;;;;;;;2.50;2.30;;;;;;;15.97;100.00;100656.09;5021585;57;1140948;-72
2023/07/06 03:03:15;;;;;;;6.70;3.93;;;;;;;16.06;100.00;100657.84;5021644;57;1140994;-73
2023/07/06 03:08:21;;;;;;;5.60;2.93;;;;;;;16.20;100.00;100661.33;5041416;57;1140987;-72
2023/07/06 03:13:28;;;;;;;4.60;2.30;;;;;;;16.02;100.00;100673.84;5021431;57;1140740;-70
2023/07/06 03:18:34;;;;;;;8.04;2.84;;;;;;;15.80;100.00;100685.73;5020535;56;1141152;-72
2023/07/06 03:23:39;;;;;;;8.53;3.50;;;;;;;15.86;100.00;100693.16;5040291;57;1140772;-72
2023/07/06 03:28:45;;;;;;;13.90;2.87;;;;;;;16.05;100.00;100682.84;5021662;57;1141128;-75
2023/07/06 03:33:50;;;;;;;11.53;3.17;;;;;;;16.16;100.00;100694.66;5021271;57;1142850;-74
2023/07/06 03:38:57;;;;;;;4.13;2.73;;;;;;;16.21;100.00;100696.36;5021299;57;1143142;-73
2023/07/06 03:44:04;;;;;;;6.47;2.37;;;;;;;16.16;100.00;100702.17;5013891;56;1140690;-75
2023/07/06 03:49:10;;;;;;;6.57;2.83;;;;;;;15.98;100.00;100705.80;5021578;56;1140900;-73
2023/07/06 03:54:15;;;;;;;8.67;5.33;;;;;;;15.67;100.00;100709.25;5018159;57;1140883;-74
2023/07/06 03:59:21;;;;;;;7.03;4.57;;;;;;;15.34;100.00;100710.59;4979829;57;1140937;-74
2023/07/06 04:04:28;;;;;;;8.87;2.90;;;;;;;15.14;100.00;100717.78;4984563;57;1141004;-73
2023/07/06 04:09:36;;;;;;;11.77;4.57;;;;;;;15.10;100.00;100723.92;4985061;57;1140993;-75
2023/07/06 04:14:41;;;;;;;3.77;2.17;;;;;;;15.13;100.00;100725.43;5034843;56;1142848;-74
2023/07/06 04:19:47;;;;;;;12.65;2.08;;;;;;;15.30;100.00;100725.19;5014049;56;1140863;-71
2023/07/06 04:24:52;;;;;;;6.23;2.27;;;;;;;15.44;100.00;100724.72;5053061;57;1142829;-74
2023/07/06 04:29:58;;;;;;;10.00;2.60;;;;;;;15.55;100.00;100731.27;5074103;57;1140700;-75
2023/07/06 04:35:06;;;;;;;15.13;2.07;;;;;;;15.58;100.00;100734.98;5051909;56;1142996;-77
2023/07/06 04:40:13;;;;;;;6.90;2.23;;;;;;;15.58;100.00;100738.97;5053563;56;1143028;-71
2023/07/06 04:45:21;;;;;;;4.14;2.74;;;;;;;15.56;100.00;100746.27;5074296;57;1140548;-73
2023/07/06 04:50:27;;;;;;;11.23;2.90;;;;;;;15.60;100.00;100734.80;5074539;57;1140848;-77
2023/07/06 04:55:33;;;;;;;6.30;2.30;;;;;;;15.68;100.00;100744.26;5052648;57;1143086;-75
2023/07/06 05:00:39;;;;;;;5.80;3.35;;;;;;;15.78;100.00;100739.72;5076233;56;1141131;-72
2023/07/06 05:05:47;;;;;;;13.03;2.55;;;;;;;15.88;100.00;100736.53;5048778;56;1140978;-71
2023/07/06 05:10:54;;;;;;;5.57;2.63;;;;;;;15.99;100.00;100741.66;5047954;56;1142938;-74
2023/07/06 05:16:00;;;;;;;3.35;2.37;;;;;;;16.09;100.00;100750.94;5046196;56;1141113;-71
2023/07/06 05:21:06;;;;;;;9.40;2.67;;;;;;;16.17;100.00;100749.22;5071493;56;1140922;-73
2023/07/06 05:26:12;;;;;;;4.23;2.33;;;;;;;16.29;100.00;100757.01;5053279;56;1140807;-73
2023/07/06 05:31:19;;;;;;;6.27;2.30;;;;;;;16.43;100.00;100765.84;5058678;56;1140875;-78
2023/07/06 05:36:26;;;;;;;6.70;2.33;;;;;;;16.50;100.00;100759.73;5051999;56;1140843;-74
2023/07/06 05:41:33;;;;;;;7.67;2.30;;;;;;;16.60;100.00;100769.52;5067000;56;1140949;-77
2023/07/06 05:46:40;;;;;;;7.47;2.10;;;;;;;16.74;100.00;100757.84;5037273;56;1141099;-73
2023/07/06 05:51:45;;;;;;;3.58;1.87;;;;;;;16.90;100.00;100760.31;5055515;56;1140840;-72
2023/07/06 05:56:55;;;;;;;4.33;2.20;;;;;;;16.99;100.00;100768.23;5062002;56;1140930;-75
2023/07/06 06:02:01;;;;;;;12.00;2.92;;;;;;;17.08;100.00;100782.52;5056662;56;1140953;-75
2023/07/06 06:07:07;;;;;;;4.93;2.77;;;;;;;17.06;100.00;100782.67;5090362;56;1142988;-75
2023/07/06 06:12:18;;;;;;;6.07;2.43;;;;;;;17.00;100.00;100791.79;5040339;57;1140837;-76
2023/07/06 06:17:21;;;;;;;7.17;3.00;;;;;;;17.03;100.00;100798.17;5046816;56;1140890;-75
2023/07/06 06:22:26;;;;;;;10.13;3.47;;;;;;;17.04;100.00;100801.19;4999151;57;1140864;-71
2023/07/06 06:27:33;;;;;;;7.62;2.37;;;;;;;17.02;100.00;100817.38;5066300;57;1143066;-74
2023/07/06 06:32:39;;;;;;;11.85;2.33;;;;;;;17.05;100.00;100823.75;5054625;57;1140944;-71
2023/07/06 06:37:45;;;;;;;12.07;2.63;;;;;;;17.11;100.00;100833.80;5071103;56;1143183;-72
2023/07/06 06:42:50;;;;;;;7.85;2.92;;;;;;;17.22;100.00;100836.77;5054118;57;1143022;-74
2023/07/06 06:47:56;;;;;;;16.17;3.52;;;;;;;17.38;100.00;100838.23;5054364;57;1140872;-73
2023/07/06 06:53:02;;;;;;;7.00;2.87;;;;;;;17.39;100.00;100837.25;5073432;57;1142913;-75
2023/07/06 06:58:08;;;;;;;12.27;3.20;;;;;;;17.50;100.00;100825.45;5050345;56;1141132;-77
2023/07/06 07:03:14;;;;;;;10.27;2.60;;;;;;;17.56;100.00;100821.66;5056460;56;1143069;-75
2023/07/06 07:08:20;;;;;;;2.60;2.40;;;;;;;17.63;100.00;100828.55;5074808;56;1143059;-75
2023/07/06 07:13:27;;;;;;;13.80;2.83;;;;;;;17.68;100.00;100827.62;5056486;56;1140802;-73
2023/07/06 07:18:35;;;;;;;6.25;2.37;;;;;;;17.69;100.00;100827.96;5079973;56;1142905;-73
2023/07/06 07:23:49;;;;;;;4.60;2.63;;;;;;;17.91;100.00;100836.78;5036313;56;1141074;-76
2023/07/06 07:28:55;;;;;;;9.37;3.00;;;;;;;18.08;100.00;100833.69;5034540;56;1140879;-74
2023/07/06 07:34:01;;;;;;;7.08;3.37;;;;;;;18.26;100.00;100835.79;5056858;56;1140831;-75
2023/07/06 07:39:06;;;;;;;10.48;3.27;;;;;;;18.46;100.00;100833.70;5113421;56;1140831;-76
2023/07/06 07:44:12;;;;;;;6.28;2.52;;;;;;;18.69;100.00;100832.61;5132217;56;1143080;-72
2023/07/06 07:49:17;;;;;;;4.58;2.90;;;;;;;18.95;100.00;100840.52;5097082;56;1140960;-72
2023/07/06 07:54:23;;;;;;;4.72;2.70;;;;;;;19.12;100.00;100838.70;5077639;56;1140829;-75
2023/07/06 07:59:29;;;;;;;6.42;2.60;;;;;;;19.26;100.00;100835.36;5057228;56;1140796;-74
2023/07/06 08:04:35;;;;;;;2.36;2.16;;;;;;;19.35;100.00;100839.73;5054811;56;1141406;-74
2023/07/06 08:09:41;;;;;;;2.72;2.20;;;;;;;19.39;100.00;100842.92;5102966;56;1141000;-70
2023/07/06 08:14:46;;;;;;;4.22;2.15;;;;;;;19.31;100.00;100843.75;5115810;56;1140803;-72
2023/07/06 08:19:52;;;;;;;7.14;3.18;;;;;;;19.35;100.00;100854.98;5070898;56;1140839;-77
2023/07/06 08:24:59;;;;;;;10.43;2.40;;;;;;;19.62;100.00;100858.69;5073150;56;1140878;-75
2023/07/06 08:30:06;;;;;;;7.65;2.75;;;;;;;19.76;100.00;100858.00;5053239;56;1143141;-76
2023/07/06 08:35:12;;;;;;;5.75;2.37;;;;;;;19.98;100.00;100859.14;5053192;56;1140891;-73
2023/07/06 08:40:20;;;;;;;10.95;2.92;;;;;;;20.12;100.00;100856.25;5087202;56;1140957;-72
2023/07/06 08:45:33;;;;;;;8.85;2.80;;;;;;;20.33;100.00;100858.67;5083199;56;1142828;-73
2023/07/06 08:50:39;;;;;;;4.58;2.30;;;;;;;20.70;100.00;100858.55;5062464;56;1140890;-75
2023/07/06 08:55:46;;;;;;;2.57;1.90;;;;;;;20.84;100.00;100860.48;5093054;56;1140861;-74
2023/07/06 09:01:01;;;;;;;2.53;2.10;;;;;;;20.93;100.00;100855.91;5065455;56;1141054;-76
2023/07/06 09:06:10;;;;;;;5.62;2.75;;;;;;;21.11;100.00;100860.97;5047844;56;1140707;-72
2023/07/06 09:11:17;;;;;;;5.08;2.55;;;;;;;21.15;100.00;100873.89;5157714;57;1140778;-76
2023/07/06 09:16:25;;;;;;;2.87;2.02;;;;;;;21.20;100.00;100871.55;5138924;57;1140818;-71
2023/07/06 09:21:32;;;;;;;5.87;2.30;;;;;;;21.23;100.00;100872.53;5099143;56;1140966;-70
2023/07/06 09:26:38;;;;;;;2.25;1.95;;;;;;;21.27;100.00;100868.44;5052097;56;1141054;-75
2023/07/06 09:31:43;;;;;;;3.80;2.15;;;;;;;21.27;100.00;100868.44;5039670;56;1140693;-75
2023/07/06 09:36:49;;;;;;;8.05;2.58;;;;;;;21.34;94.98;100863.19;5039199;56;1140635;-72
2023/07/06 09:41:57;;;;;;;4.47;2.17;;;;;;;21.10;93.90;100881.64;5039098;56;1138812;-73
2023/07/06 09:47:04;;;;;;;4.25;2.65;;;;;;;21.31;100.00;100869.77;5055670;57;1138738;-76
2023/07/06 09:52:17;;;;;;;2.40;2.20;;;;;;;21.72;98.65;100877.48;5029598;56;1148672;-74
2023/07/06 09:57:26;;;;;;;3.60;2.37;;;;;;;21.98;94.91;100872.52;5044460;56;1138784;-72
2023/07/06 10:02:56;;;;;;;5.25;2.47;;;;;;;22.16;97.41;100879.41;5017114;56;1138927;-75
2023/07/06 10:08:18;;;;;;;6.33;2.25;;;;;;;22.37;94.46;100873.61;5082579;56;1138927;-76
2023/07/06 10:13:43;;;;;;;8.80;2.30;;;;;;;22.16;93.60;100870.82;4923823;58;1138935;-72
2023/07/06 10:18:52;;;;;;;12.28;2.22;;;;;;;22.19;95.49;100879.89;4877164;58;1139072;-71
2023/07/06 10:24:40;;;;;;;2.67;2.15;;;;;;;22.14;91.66;100877.45;4933816;58;1141136;-70
2023/07/06 10:29:52;;;;;;;6.05;2.15;;;;;;;21.89;91.36;100881.69;4880783;58;1138800;-74
2023/07/06 10:35:08;;;;;;;8.05;2.22;;;;;;;21.65;90.80;100888.67;4886427;58;1138826;-71
2023/07/06 10:40:26;;;;;;;4.33;1.98;;;;;;;21.66;93.88;100884.95;4888263;58;1139091;-75
2023/07/06 10:45:42;;;;;;;3.65;1.92;;;;;;;21.99;94.68;100877.41;4913495;58;1138937;-72
2023/07/06 10:51:24;;;;;;;4.90;2.20;;;;;;;22.48;87.99;100885.77;5001373;56;1259919;-73
2023/07/06 10:56:33;;;;;;;3.05;1.95;;;;;;;22.78;77.52;100881.20;5092695;56;1138829;-75
2023/07/06 11:01:43;;;;;;;3.85;2.00;;;;;;;22.88;73.21;100881.75;5024369;56;1138879;-76
2023/07/06 11:06:54;;;;;;;1.95;1.85;;;;;;;23.13;75.24;100876.82;5040371;56;1139004;-73
2023/07/06 11:12:05;;;;;;;2.67;2.30;;;;;;;23.39;72.40;100877.06;5090057;56;1139039;-76
2023/07/06 11:17:35;;;;;;;10.43;3.33;;;;;;;23.42;62.68;100881.25;5048438;56;1138770;-71
2023/07/06 11:22:44;;;;;;;3.20;2.08;;;;;;;23.46;65.68;100875.79;5035564;56;1140750;-72
2023/07/06 11:27:54;;;;;;;3.40;2.25;;;;;;;23.59;66.53;100875.93;5039673;56;1138775;-66
2023/07/06 11:33:16;;;;;;;3.62;2.27;;;;;;;23.61;65.69;100875.73;5043200;56;1138955;-74
2023/07/06 11:38:32;;;;;;;2.62;1.72;;;;;;;23.75;63.67;100882.91;5035879;56;1138808;-69
2023/07/06 11:44:08;;;;;;;4.00;2.25;;;;;;;24.06;60.16;100879.30;5014538;56;1138678;-78
2023/07/06 11:49:43;;;;;;;4.37;2.23;;;;;;;23.87;58.23;100877.28;5045990;56;1138841;-76
2023/07/06 11:55:15;;;;;;;2.30;1.87;;;;;;;23.62;59.90;100888.21;5071564;56;1138805;-74
2023/07/06 12:05:39;;;;;;;6.47;2.70;;;;;;;24.02;61.64;100879.36;5056255;56;1139010;-76
2023/07/06 12:10:53;;;;;;;9.60;2.22;;;;;;;24.39;61.75;100889.50;5039393;56;1139027;-72
2023/07/06 12:16:13;;;;;;;4.83;2.23;;;;;;;24.19;58.47;100890.70;5036879;56;1139092;-70
2023/07/06 12:21:29;;;;;;;3.40;1.77;;;;;;;23.95;58.41;100889.83;5059699;56;1139012;-69
2023/07/06 12:26:47;;;;;;;4.17;2.35;;;;;;;23.71;58.01;100885.16;5039376;57;1138778;-70
2023/07/06 12:31:54;;;;;;;8.75;2.00;;;;;;;23.53;59.81;100882.09;5040618;56;1138767;-73
2023/07/06 12:37:02;;;;;;;3.08;2.20;;;;;;;23.40;62.05;100880.09;5040042;57;1139258;-73
2023/07/06 12:42:11;;;;;;;4.47;2.35;;;;;;;23.50;62.78;100881.13;5083373;56;1138971;-71
2023/07/06 12:47:40;;;;;;;3.47;2.62;;;;;;;23.85;63.06;100867.19;5080750;56;1139034;-75
2023/07/06 12:52:46;;;;;;;2.30;2.10;;;;;;;24.04;57.25;100868.36;5079657;56;1138809;-71
2023/07/06 12:57:53;;;;;;;3.60;1.45;;;;;;;24.17;58.11;100870.63;5057498;56;1138857;-72
2023/07/06 13:03:00;;;;;;;3.87;2.60;;;;;;;24.48;58.48;100859.89;5062399;56;1138812;-71
2023/07/06 13:08:08;;;;;;;3.40;2.10;;;;;;;24.71;52.78;100853.66;4999268;57;1138756;-75
2023/07/06 13:13:22;;;;;;;9.55;2.33;;;;;;;24.66;54.09;100861.53;5042828;57;1138969;-74
2023/07/06 13:18:29;;;;;;;2.47;1.98;;;;;;;24.84;56.85;100860.97;5062634;57;1138796;-77
2023/07/06 13:23:35;;;;;;;3.12;1.77;;;;;;;25.04;53.46;100864.60;5042474;57;1138642;-73
2023/07/06 13:28:43;;;;;;;3.87;2.10;;;;;;;25.02;51.44;100867.20;5042312;57;1138690;-79
2023/07/06 13:33:49;;;;;;;5.72;2.45;;;;;;;24.72;52.71;100872.07;5049143;57;1139049;-72
2023/07/06 13:38:54;;;;;;;2.37;2.05;;;;;;;24.71;52.41;100872.59;5058176;57;1138882;-78
2023/07/06 13:44:00;;;;;;;4.22;2.60;;;;;;;24.57;51.75;100869.52;5042467;57;1138905;-72
2023/07/06 13:49:06;;;;;;;3.50;1.97;;;;;;;24.28;54.20;100865.74;5041518;57;1138876;-72
2023/07/06 13:54:16;;;;;;;3.52;2.27;;;;;;;24.25;54.74;100866.14;5055842;56;1138904;-74
2023/07/06 13:59:22;;;;;;;8.33;2.35;;;;;;;24.29;53.47;100872.27;5032229;56;1138754;-71
2023/07/06 14:04:27;;;;;;;3.50;1.90;;;;;;;24.37;55.00;100870.77;5036531;56;1139157;-71
2023/07/06 14:09:34;;;;;;;4.25;2.17;;;;;;;24.41;54.49;100871.21;5046443;57;1138913;-72
2023/07/06 14:14:41;;;;;;;3.45;2.35;;;;;;;24.44;55.22;100870.81;4996305;55;1138887;-73
2023/07/06 14:19:46;;;;;;;9.38;2.37;;;;;;;24.54;53.58;100878.03;5020817;56;1138802;-72
2023/07/06 14:24:52;;;;;;;4.80;1.95;;;;;;;24.49;55.96;100876.44;5032341;56;1138924;-74
2023/07/06 14:29:58;;;;;;;3.58;2.00;;;;;;;24.38;57.72;100880.55;5046101;56;1138953;-73
2023/07/06 14:35:04;;;;;;;4.53;2.30;;;;;;;24.59;60.73;100877.44;5048179;56;1138990;-72
2023/07/06 14:40:13;;;;;;;3.14;2.20;;;;;;;24.99;61.71;100881.96;5016476;57;1139003;-74
2023/07/06 14:45:18;;;;;;;6.30;2.45;;;;;;;25.29;60.72;100878.89;5055528;55;1138795;-73
2023/07/06 14:50:25;;;;;;;3.77;2.45;;;;;;;25.43;59.82;100870.58;5044202;56;1138835;-71
2023/07/06 14:55:30;;;;;;;3.27;2.13;;;;;;;25.57;60.20;100867.34;4980679;57;1138682;-76
2023/07/06 15:00:36;;;;;;;3.23;2.20;;;;;;;25.33;57.02;100878.80;4998870;57;1138871;-74
2023/07/06 15:05:42;;;;;;;4.28;1.98;;;;;;;24.89;54.58;100861.20;5051995;57;1138945;-75
2023/07/06 15:10:47;;;;;;;2.50;2.00;;;;;;;24.58;56.26;100860.37;5052917;57;1138807;-70
2023/07/06 15:15:53;;;;;;;3.42;1.98;;;;;;;24.72;57.66;100858.03;5009309;57;1138940;-72
2023/07/06 15:21:13;;;;;;;2.90;1.90;;;;;;;24.86;56.22;100858.38;5058701;56;1138845;-72
2023/07/06 15:26:19;;;;;;;4.55;1.75;;;;;;;24.92;54.40;100861.29;5043364;57;1138963;-69
2023/07/06 15:31:25;;;;;;;4.87;2.17;;;;;;;24.99;50.09;100863.54;5048505;57;1139079;-74
2023/07/06 15:36:32;;;;;;;1.80;1.70;;;;;;;24.95;50.43;100860.40;5068931;57;1139039;-71
2023/07/06 15:41:40;;;;;;;2.65;1.52;;;;;;;24.99;47.73;100867.59;5047477;57;1138930;-75
2023/07/06 15:46:45;;;;;;;1.75;1.47;;;;;;;24.96;48.40;100863.94;5046565;57;1138658;-74
2023/07/06 15:51:52;;;;;;;3.40;1.85;;;;;;;24.92;48.93;100855.36;5045467;57;1138928;-73
2023/07/06 15:57:00;;;;;;;5.60;2.00;;;;;;;24.92;48.93;100855.36;5061428;57;1230078;-71
2023/07/06 16:02:05;;;;;;;2.35;1.77;;;;;;;24.88;49.50;100860.37;5063154;57;1138744;-75
2023/07/06 16:07:12;;;;;;;4.30;2.27;;;;;;;24.95;49.61;100860.92;5047211;57;1138787;-75
2023/07/06 16:12:18;;;;;;;2.58;1.82;;;;;;;24.88;51.06;100866.30;5077860;56;1138880;-72
2023/07/06 16:17:23;;;;;;;4.37;1.90;;;;;;;24.65;50.70;100873.91;5032711;56;1138791;-76
2023/07/06 16:22:29;;;;;;;5.67;2.20;;;;;;;24.41;51.63;100866.64;5047971;57;1139157;-74
2023/07/06 16:27:34;;;;;;;4.37;1.67;;;;;;;24.39;53.57;100873.28;5055786;56;1138802;-73
2023/07/06 16:32:42;;;;;;;2.67;2.08;;;;;;;24.57;53.13;100865.98;5035084;56;1138891;-76
2023/07/06 16:37:49;;;;;;;4.17;2.00;;;;;;;24.73;52.98;100862.92;5038112;57;1138939;-77
2023/07/06 16:42:57;;;;;;;4.37;2.30;;;;;;;24.89;53.04;100865.27;5046265;56;1139021;-76
2023/07/06 16:48:02;;;;;;;3.40;2.27;;;;;;;24.95;51.90;100877.16;5064538;56;1138590;-75
2023/07/06 16:53:08;;;;;;;1.77;1.70;;;;;;;24.99;52.86;100883.83;5044697;56;1138675;-72
2023/07/06 16:58:13;;;;;;;4.75;2.45;;;;;;;24.85;51.60;100894.59;5057320;56;1251637;-74
2023/07/06 17:03:19;;;;;;;7.12;3.83;;;;;;;24.77;51.06;100895.27;5049920;56;1138994;-73
2023/07/06 17:08:25;;;;;;;3.10;2.80;;;;;;;24.74;51.07;100891.13;5009496;57;1139144;-75
2023/07/06 17:13:30;;;;;;;37.73;17.07;;;;;;;24.67;51.92;100901.07;5072209;56;1138760;-70
2023/07/06 17:18:37;;;;;;;26.95;24.12;;;;;;;24.64;51.72;100901.98;5054874;56;1142976;-74
2023/07/06 17:23:43;;;;;;;6.25;3.62;;;;;;;24.60;51.36;100908.30;5045949;56;1142908;-77
2023/07/06 17:28:48;;;;;;;2.77;2.37;;;;;;;24.45;51.64;100913.85;5057576;56;1138965;-73
2023/07/06 17:33:54;;;;;;;2.62;2.28;;;;;;;24.43;53.00;100910.54;5129015;56;1139229;-77
2023/07/06 17:39:00;;;;;;;6.33;4.22;;;;;;;24.46;53.05;100917.39;5151094;56;1138804;-75
2023/07/06 17:44:05;;;;;;;4.42;3.15;;;;;;;24.51;52.74;100921.70;5129244;56;1139040;-72
2023/07/06 17:49:11;;;;;;;4.35;2.70;;;;;;;24.48;52.26;100925.63;5057151;56;1138699;-72
2023/07/06 17:54:16;;;;;;;11.40;2.55;;;;;;;24.21;51.10;100929.18;4982842;56;1138744;-73
2023/07/06 17:59:22;;;;;;;9.95;3.67;;;;;;;24.02;52.27;100935.27;5040332;57;1141088;-74
2023/07/06 18:04:29;;;;;;;4.03;3.02;;;;;;;23.92;53.33;100931.58;5044678;57;1138954;-75
2023/07/06 18:09:34;;;;;;;3.87;2.42;;;;;;;23.86;53.65;100937.75;5010213;57;1138818;-73
2023/07/06 18:14:40;;;;;;;5.22;2.08;;;;;;;23.79;54.39;100940.41;5014674;57;1235881;-76
2023/07/06 18:19:45;;;;;;;3.42;2.02;;;;;;;23.75;54.96;100948.58;5043600;57;1138865;-74
2023/07/06 18:24:51;;;;;;;6.92;2.42;;;;;;;23.63;54.75;100943.89;4988679;56;1138854;-73
2023/07/06 18:29:56;;;;;;;2.50;2.08;;;;;;;23.48;54.80;100943.93;5002361;57;1139035;-73
2023/07/06 18:35:02;;;;;;;2.75;2.40;;;;;;;23.44;55.64;100948.87;5006640;57;1138887;-74
2023/07/06 18:40:09;;;;;;;5.25;2.27;;;;;;;23.44;56.60;100951.57;5044328;57;1138868;-74
2023/07/06 18:45:15;;;;;;;8.43;2.23;;;;;;;23.48;57.79;100962.31;5088463;56;1139239;-75
2023/07/06 18:50:20;;;;;;;5.60;2.70;;;;;;;23.54;58.11;100961.23;5071492;56;1139532;-74
2023/07/06 18:55:26;;;;;;;5.58;3.30;;;;;;;23.56;58.58;100963.23;5034884;56;1138971;-71
2023/07/06 19:00:34;;;;;;;6.95;2.92;;;;;;;23.56;59.10;100973.52;4902797;59;1139022;-74
2023/07/06 19:05:40;;;;;;;4.45;3.47;;;;;;;23.48;58.22;100978.52;5020563;57;1138983;-72
2023/07/06 19:10:45;;;;;;;9.05;4.47;;;;;;;23.19;59.00;100980.47;5019669;56;1138759;-74
2023/07/06 19:15:51;;;;;;;7.65;5.42;;;;;;;23.10;60.40;100986.47;5045185;57;1139028;-75
2023/07/06 19:20:57;;;;;;;7.58;5.75;;;;;;;23.05;61.12;101005.11;5053173;56;1138716;-76
2023/07/06 19:26:03;;;;;;;7.08;5.05;;;;;;;22.78;60.84;101010.64;5007616;57;1138832;-75
2023/07/06 19:31:09;;;;;;;9.78;5.37;;;;;;;22.45;61.77;101018.25;5067912;56;1138958;-75
2023/07/06 19:36:15;;;;;;;9.88;5.53;;;;;;;22.33;63.15;101021.04;5079602;56;1138915;-72
2023/07/06 19:41:21;;;;;;;14.65;9.53;;;;;;;22.09;63.89;101035.08;5043773;56;1139021;-74
2023/07/06 19:46:27;;;;;;;24.65;16.52;;;;;;;22.04;66.02;101032.08;5020547;57;1250879;-75
2023/07/06 19:51:33;;;;;;;69.35;46.25;;;;;;;22.07;67.23;101038.45;5057477;56;1143083;-74
2023/07/06 19:56:38;;;;;;;86.12;59.75;;;;;;;22.04;67.99;101033.93;5042133;56;1143187;-76
2023/07/06 20:01:45;;;;;;;57.93;33.83;;;;;;;21.97;68.05;101041.89;5044803;57;1142928;-74
2023/07/06 20:06:51;;;;;;;43.25;26.48;;;;;;;21.62;67.58;101041.12;5047265;57;1143054;-70
2023/07/06 20:11:56;;;;;;;18.45;11.25;;;;;;;21.18;68.94;101052.42;4993327;57;1142983;-71
2023/07/06 20:17:02;;;;;;;21.87;12.90;;;;;;;20.85;70.17;101054.89;5031248;57;1142971;-72
2023/07/06 20:22:08;;;;;;;17.25;8.10;;;;;;;20.78;71.78;101063.33;5033339;57;1142917;-72
2023/07/06 20:27:14;;;;;;;14.07;7.92;;;;;;;20.70;72.34;101068.20;5050971;57;1141197;-74
2023/07/06 20:32:19;;;;;;;16.00;8.68;;;;;;;20.67;73.40;101062.66;5032521;56;1140949;-75
2023/07/06 20:37:25;;;;;;;13.08;8.85;;;;;;;20.74;74.37;101061.48;5039861;57;1140973;-71
2023/07/06 20:42:31;;;;;;;13.38;8.88;;;;;;;20.72;74.86;101068.88;5073935;57;1140831;-69
2023/07/06 20:47:37;;;;;;;14.58;8.28;;;;;;;20.73;75.31;101071.06;5047289;57;1166094;-74
2023/07/06 20:52:43;;;;;;;14.23;8.83;;;;;;;20.74;75.58;101080.81;5068230;57;1141078;-76
2023/07/06 20:57:49;;;;;;;25.12;11.28;;;;;;;20.66;75.61;101083.83;5075348;57;1150648;-72
2023/07/06 21:02:55;;;;;;;22.48;11.48;;;;;;;20.51;75.53;101087.38;5026058;57;1213357;-71
2023/07/06 21:08:03;;;;;;;40.20;20.00;;;;;;;20.47;76.48;101090.91;5042829;57;1149318;-69
2023/07/06 21:13:09;;;;;;;39.58;23.80;;;;;;;20.47;76.89;101088.22;5061316;57;1143046;-73
2023/07/06 21:18:14;;;;;;;36.30;23.35;;;;;;;20.45;76.87;101098.33;5040951;57;1153259;-72
2023/07/06 21:23:20;;;;;;;58.73;36.10;;;;;;;20.42;76.94;101101.84;5041258;57;1143074;-75
2023/07/06 21:28:26;;;;;;;42.38;26.00;;;;;;;20.31;76.70;101103.00;5081137;57;1142923;-76
2023/07/06 21:33:32;;;;;;;20.68;12.47;;;;;;;20.24;76.84;101106.84;5018279;56;1142949;-73
2023/07/06 21:38:38;;;;;;;17.00;10.03;;;;;;;20.21;77.02;101112.55;4961102;56;1142865;-72
2023/07/06 21:43:45;;;;;;;18.48;10.82;;;;;;;20.13;77.04;101123.80;4980551;56;1142732;-72
2023/07/06 21:48:50;;;;;;;21.00;13.50;;;;;;;19.79;76.37;101132.79;4990052;56;1236960;-75
2023/07/06 21:53:56;;;;;;;24.75;11.48;;;;;;;19.38;77.12;101138.48;5042190;57;1143317;-71
2023/07/06 21:59:02;;;;;;;11.40;7.85;;;;;;;18.98;78.12;101137.75;4984694;57;1142822;-74
2023/07/06 22:04:08;;;;;;;10.93;7.10;;;;;;;18.72;79.61;101140.44;4886815;59;1141082;-74
2023/07/06 22:09:14;;;;;;;9.25;7.08;;;;;;;18.61;80.37;101155.44;4969484;57;1236234;-69
2023/07/06 22:14:19;;;;;;;11.57;7.95;;;;;;;18.33;80.48;101160.52;5031501;57;1139637;-75
2023/07/06 22:19:25;;;;;;;18.30;9.28;;;;;;;18.18;81.24;101158.35;5010056;57;1256260;-71
2023/07/06 22:24:31;;;;;;;15.03;9.38;;;;;;;18.13;81.21;101163.34;5027692;57;1245789;-74
2023/07/06 22:29:36;;;;;;;13.78;8.75;;;;;;;17.87;80.84;101165.08;5039280;57;1250908;-73
2023/07/06 22:34:42;;;;;;;15.32;10.48;;;;;;;17.76;81.78;101166.60;4962842;58;1251707;-71
2023/07/06 22:39:48;;;;;;;14.20;9.75;;;;;;;17.75;82.35;101171.60;4962224;58;1248247;-75
2023/07/06 22:44:53;;;;;;;15.58;9.83;;;;;;;17.69;82.83;101173.56;4914614;58;1250458;-74
2023/07/06 22:49:59;;;;;;;19.30;10.93;;;;;;;17.84;83.88;101180.09;4935733;58;1254359;-77
2023/07/06 22:55:06;;;;;;;18.73;10.08;;;;;;;17.81;83.31;101177.22;4904113;57;1247763;-75
2023/07/06 23:00:12;;;;;;;25.07;11.23;;;;;;;17.73;83.44;101178.44;5053167;57;1143157;-76
2023/07/06 23:05:24;;;;;;;13.80;9.00;;;;;;;17.81;84.90;101184.40;5075798;57;1143034;-74
2023/07/06 23:10:29;;;;;;;12.85;8.20;;;;;;;17.57;83.94;101183.56;5006450;57;1140934;-74
2023/07/06 23:15:35;;;;;;;15.35;8.25;;;;;;;17.34;84.69;101180.92;4892123;58;1141284;-72